Time;durP1;ratioP1;P1;durP2;ratioP2;P2;SDS_P1;SDS_P2;PMS_P1;PMS_P2;Temp;Humidity;BMP_temperature;BMP_pressure;BME280_temperature;BME280_humidity;BME280_pressure;Samples;Min_cycle;Max_cycle;Signal;HPM_P1;HPM_P2
2022/11/20 00:02:22;;;;;;;45.30;22.70;;;;;;;-2.25;65.19;99996.24;126900;1281;98073;-80
2022/11/20 00:05:25;;;;;;;46.00;23.50;;;;;;;-2.26;65.36;99996.81;127037;1281;98500;-80
2022/11/20 00:08:28;;;;;;;45.50;22.60;;;;;;;-2.28;65.18;99992.20;126756;1282;98151;-80
2022/11/20 00:11:32;;;;;;;50.70;23.80;;;;;;;-2.29;65.09;99985.86;126741;1281;98744;-80
2022/11/20 00:14:34;;;;;;;52.00;25.00;;;;;;;-2.32;65.38;99981.62;126854;1286;97979;-80
2022/11/20 00:17:37;;;;;;;48.90;24.70;;;;;;;-2.35;65.30;99982.84;127045;1279;97978;-79
2022/11/20 00:20:40;;;;;;;48.60;24.10;;;;;;;-2.39;65.29;99983.55;126965;1278;98042;-78
2022/11/20 00:23:43;;;;;;;44.80;22.50;;;;;;;-2.42;65.20;99980.00;126884;1271;98417;-79
2022/11/20 00:26:45;;;;;;;47.60;23.60;;;;;;;-2.44;65.22;99979.94;126978;1284;97979;-79
2022/11/20 00:29:48;;;;;;;47.70;24.70;;;;;;;-2.46;65.47;99980.04;127105;1286;99115;-79
2022/11/20 00:32:50;;;;;;;45.60;23.90;;;;;;;-2.49;65.21;99982.45;126704;1281;98010;-80
2022/11/20 00:35:53;;;;;;;43.70;22.80;;;;;;;-2.50;65.63;99980.94;126745;1288;99137;-79
2022/11/20 00:38:58;;;;;;;44.10;23.10;;;;;;;-2.48;65.47;99981.00;127100;1282;99167;-81
2022/11/20 00:42:00;;;;;;;50.00;24.90;;;;;;;-2.48;65.42;99983.97;127136;1278;111127;-79
2022/11/20 00:45:04;;;;;;;48.80;23.10;;;;;;;-2.50;65.56;99987.02;127052;1275;97998;-79
2022/11/20 00:48:07;;;;;;;49.60;24.20;;;;;;;-2.48;65.37;99986.40;126917;1290;111129;-79
2022/11/20 00:51:11;;;;;;;51.10;24.00;;;;;;;-2.49;65.56;99988.90;126634;1283;99154;-78
2022/11/20 00:54:14;;;;;;;46.70;23.00;;;;;;;-2.48;65.51;99982.59;126776;1278;111266;-78
2022/11/20 00:57:16;;;;;;;45.10;23.60;;;;;;;-2.47;65.75;99980.61;126702;1294;98013;-79
2022/11/20 01:00:19;;;;;;;49.40;24.30;;;;;;;-2.44;65.46;99975.95;126860;1287;98012;-78
2022/11/20 01:03:22;;;;;;;49.10;24.30;;;;;;;-2.40;65.89;99975.23;126665;1281;99134;-78
2022/11/20 01:06:26;;;;;;;45.30;23.50;;;;;;;-2.40;65.48;99972.60;126729;1278;98003;-78
2022/11/20 01:09:29;;;;;;;45.70;23.30;;;;;;;-2.41;65.52;99974.56;126688;1279;111211;-78
2022/11/20 01:12:35;;;;;;;49.80;24.40;;;;;;;-2.41;65.68;99973.00;126640;1297;111188;-79
2022/11/20 01:15:37;;;;;;;47.60;23.50;;;;;;;-2.40;65.63;99971.39;126780;1274;97989;-79
2022/11/20 01:18:42;;;;;;;48.10;23.60;;;;;;;-2.41;65.73;99965.34;126664;1287;97981;-78
2022/11/20 01:21:48;;;;;;;48.80;23.90;;;;;;;-2.41;65.72;99965.83;126755;1294;111179;-79
2022/11/20 01:24:50;;;;;;;47.90;24.80;;;;;;;-2.40;65.86;99960.09;126703;1294;140037;-78
2022/11/20 01:27:53;;;;;;;46.40;24.20;;;;;;;-2.42;65.61;99962.05;126997;1288;98463;-78
2022/11/20 01:30:56;;;;;;;49.30;24.40;;;;;;;-2.43;65.75;99957.79;126615;1281;98020;-78
2022/11/20 01:34:01;;;;;;;46.50;23.40;;;;;;;-2.46;65.91;99958.98;126699;1279;98017;-79
2022/11/20 01:37:04;;;;;;;52.80;24.80;;;;;;;-2.49;65.72;99953.90;126805;1277;109588;-78
2022/11/20 01:40:09;;;;;;;50.00;24.40;;;;;;;-2.50;66.12;99949.77;126793;1287;98472;-78
2022/11/20 01:43:22;;;;;;;51.10;25.50;;;;;;;-2.47;65.82;99954.70;126700;1289;111012;-79
2022/11/20 01:46:26;;;;;;;48.00;23.90;;;;;;;-2.42;66.34;99951.98;126766;1285;111104;-80
2022/11/20 01:49:37;;;;;;;49.10;23.40;;;;;;;-2.34;66.47;99945.16;126653;1281;111174;-78
2022/11/20 01:52:46;;;;;;;50.10;22.60;;;;;;;-2.28;66.33;99948.46;126715;1278;111116;-79
2022/11/20 01:55:52;;;;;;;53.70;24.90;;;;;;;-2.23;66.23;99933.75;126658;1278;111193;-80
2022/11/20 01:58:58;;;;;;;56.10;25.20;;;;;;;-2.21;66.27;99934.00;126679;1279;111339;-79
2022/11/20 02:02:01;;;;;;;52.20;24.60;;;;;;;-2.22;66.28;99941.52;126730;1278;111290;-80
2022/11/20 02:05:14;;;;;;;49.40;24.00;;;;;;;-2.26;66.03;99951.19;126790;1279;98023;-80
2022/11/20 02:08:19;;;;;;;50.50;24.90;;;;;;;-2.32;66.22;99947.81;126674;1295;111084;-79
2022/11/20 02:11:22;;;;;;;49.80;24.10;;;;;;;-2.36;65.95;99955.19;126672;1278;111214;-80
2022/11/20 02:14:26;;;;;;;50.50;23.50;;;;;;;-2.41;66.07;99959.59;126798;1294;111236;-80
2022/11/20 02:17:29;;;;;;;47.90;24.30;;;;;;;-2.48;66.06;99957.49;126811;1290;111411;-80
2022/11/20 02:20:32;;;;;;;50.20;23.70;;;;;;;-2.54;66.03;99956.94;126698;1288;111234;-79
2022/11/20 02:23:39;;;;;;;52.50;24.50;;;;;;;-2.63;66.04;99954.40;126738;1287;99188;-79
2022/11/20 02:26:48;;;;;;;52.30;24.00;;;;;;;-2.74;66.13;99953.59;126802;1288;111165;-80
2022/11/20 02:29:53;;;;;;;52.60;24.60;;;;;;;-2.83;66.19;99957.68;126738;1294;111185;-80
2022/11/20 02:32:57;;;;;;;51.40;25.00;;;;;;;-2.89;66.16;99963.36;126735;1285;111148;-81
2022/11/20 02:36:00;;;;;;;54.40;23.90;;;;;;;-2.95;66.60;99965.07;126631;1287;111162;-80
2022/11/20 02:39:03;;;;;;;51.40;24.30;;;;;;;-3.00;66.50;99963.92;126756;1280;111715;-81
2022/11/20 02:42:06;;;;;;;56.60;25.40;;;;;;;-3.04;66.51;99961.31;126735;1288;111223;-79
2022/11/20 02:45:10;;;;;;;53.70;26.10;;;;;;;-3.10;66.39;99960.23;126848;1281;99086;-79
2022/11/20 02:48:12;;;;;;;55.80;25.40;;;;;;;-3.18;66.51;99963.02;126940;1279;111811;-79
2022/11/20 02:51:15;;;;;;;56.00;26.70;;;;;;;-3.22;66.51;99960.44;126900;1278;98677;-78
2022/11/20 02:54:18;;;;;;;54.40;26.00;;;;;;;-3.25;66.59;99952.02;127041;1271;99182;-80
2022/11/20 02:57:20;;;;;;;56.40;26.50;;;;;;;-3.24;66.68;99947.81;126668;1271;98009;-80
2022/11/20 03:00:23;;;;;;;54.60;26.20;;;;;;;-3.26;66.53;99951.06;126809;1278;98014;-79
2022/11/20 03:03:26;;;;;;;56.40;26.70;;;;;;;-3.31;66.50;99954.23;126672;1288;98456;-79
2022/11/20 03:06:28;;;;;;;56.70;27.10;;;;;;;-3.36;66.89;99947.33;126663;1294;98743;-79
2022/11/20 03:09:31;;;;;;;60.20;27.40;;;;;;;-3.42;66.57;99941.20;126711;1295;98015;-80
2022/11/20 03:12:34;;;;;;;56.60;26.10;;;;;;;-3.48;66.67;99942.91;126699;1279;97979;-81
2022/11/20 03:15:37;;;;;;;53.70;25.50;;;;;;;-3.54;66.35;99938.80;126676;1279;107536;-81
2022/11/20 03:18:40;;;;;;;56.90;25.50;;;;;;;-3.60;66.85;99936.45;126670;1285;107473;-80
2022/11/20 03:21:43;;;;;;;58.70;26.90;;;;;;;-3.65;66.74;99932.70;126838;1294;107693;-81
2022/11/20 03:24:45;;;;;;;53.70;25.70;;;;;;;-3.70;66.96;99929.63;126658;1285;98386;-78
2022/11/20 03:27:48;;;;;;;58.40;27.10;;;;;;;-3.74;66.97;99932.61;126712;1281;99188;-79
2022/11/20 03:30:51;;;;;;;60.20;27.00;;;;;;;-3.79;66.91;99934.88;126766;1274;99137;-80
2022/11/20 03:33:54;;;;;;;59.90;27.00;;;;;;;-3.83;66.92;99929.53;126872;1278;98494;-78
2022/11/20 03:36:56;;;;;;;57.60;27.00;;;;;;;-3.89;67.09;99934.34;127059;1293;98079;-79
2022/11/20 03:39:59;;;;;;;54.10;24.90;;;;;;;-3.93;67.31;99937.27;126816;1294;99157;-78
2022/11/20 03:43:02;;;;;;;54.60;25.30;;;;;;;-3.93;67.12;99942.32;126653;1287;98774;-78
2022/11/20 03:46:06;;;;;;;58.40;26.70;;;;;;;-3.90;67.24;99944.44;126778;1294;98065;-79
2022/11/20 03:49:09;;;;;;;56.20;23.20;;;;;;;-3.83;67.37;99945.36;126659;1293;98371;-79
2022/11/20 03:52:11;;;;;;;53.40;23.40;;;;;;;-3.73;67.23;99945.40;126690;1281;98774;-79
2022/11/20 03:55:14;;;;;;;49.90;21.50;;;;;;;-3.63;67.07;99944.98;126852;1273;98057;-80
2022/11/20 03:58:17;;;;;;;52.20;24.10;;;;;;;-3.56;67.07;99944.95;126739;1281;99144;-80
2022/11/20 04:01:22;;;;;;;59.30;26.00;;;;;;;-3.50;67.06;99944.17;126657;1288;98108;-80
2022/11/20 04:04:25;;;;;;;60.40;26.60;;;;;;;-3.45;66.89;99946.36;126818;1294;98644;-79
2022/11/20 04:07:28;;;;;;;58.20;26.10;;;;;;;-3.44;66.84;99943.73;126727;1294;97975;-77
2022/11/20 04:10:30;;;;;;;56.60;25.80;;;;;;;-3.46;67.04;99949.39;127261;1280;99029;-84
2022/11/20 04:13:33;;;;;;;59.90;26.60;;;;;;;-3.48;67.13;99948.64;127316;1281;98086;-83
2022/11/20 04:16:36;;;;;;;62.40;27.60;;;;;;;-3.51;67.29;99948.25;127840;1296;98137;-84
2022/11/20 04:19:39;;;;;;;60.70;26.60;;;;;;;-3.52;67.35;99951.59;127426;1270;98018;-83
2022/11/20 04:22:42;;;;;;;63.20;28.00;;;;;;;-3.53;67.17;99950.73;127106;1281;99163;-82
2022/11/20 04:25:44;;;;;;;62.30;27.60;;;;;;;-3.58;67.22;99938.65;126945;1288;98410;-83
2022/11/20 04:28:47;;;;;;;61.50;27.80;;;;;;;-3.58;67.36;99940.73;126987;1284;98764;-84
2022/11/20 04:31:50;;;;;;;66.80;29.30;;;;;;;-3.64;67.12;99936.98;127033;1294;98000;-84
2022/11/20 04:34:52;;;;;;;64.60;28.90;;;;;;;-3.71;67.23;99936.44;127084;1286;98685;-82
2022/11/20 04:37:55;;;;;;;62.60;28.30;;;;;;;-3.80;67.53;99938.95;127023;1285;99022;-83
2022/11/20 04:40:59;;;;;;;66.50;27.60;;;;;;;-3.83;67.67;99933.54;127130;1279;98951;-81
2022/11/20 04:44:04;;;;;;;63.90;27.90;;;;;;;-3.85;67.59;99937.08;126949;1278;97970;-83
2022/11/20 04:47:06;;;;;;;61.50;27.20;;;;;;;-3.87;67.61;99932.14;127009;1288;98762;-81
2022/11/20 04:50:10;;;;;;;59.40;27.20;;;;;;;-3.90;67.68;99929.51;127108;1294;99023;-82
2022/11/20 04:53:13;;;;;;;61.60;27.70;;;;;;;-3.96;67.59;99926.98;126818;1294;99077;-83
2022/11/20 04:56:16;;;;;;;58.30;27.00;;;;;;;-4.00;67.85;99921.40;126902;1278;97991;-83
2022/11/20 04:59:19;;;;;;;62.00;28.00;;;;;;;-4.02;67.66;99916.64;126852;1290;99256;-82
2022/11/20 05:02:23;;;;;;;64.20;28.20;;;;;;;-4.04;68.13;99917.46;127281;1288;99252;-83
2022/11/20 05:05:26;;;;;;;60.20;27.00;;;;;;;-4.07;67.84;99913.42;128170;1295;97994;-82
2022/11/20 05:08:29;;;;;;;57.00;26.80;;;;;;;-4.10;68.07;99910.39;127184;1292;98188;-83
2022/11/20 05:11:32;;;;;;;58.00;25.80;;;;;;;-4.11;67.97;99908.91;127719;1279;99135;-82
2022/11/20 05:14:38;;;;;;;59.70;27.00;;;;;;;-4.15;68.15;99904.89;127418;1287;97994;-82
2022/11/20 05:17:41;;;;;;;56.80;26.10;;;;;;;-4.20;67.98;99905.84;126863;1288;97980;-82
2022/11/20 05:20:43;;;;;;;53.20;24.40;;;;;;;-4.24;68.17;99905.99;126903;1287;98432;-81
2022/11/20 05:23:47;;;;;;;56.90;25.60;;;;;;;-4.27;68.37;99907.33;126982;1287;97992;-83
2022/11/20 05:26:49;;;;;;;57.80;26.30;;;;;;;-4.27;68.52;99906.30;127010;1281;98007;-82
2022/11/20 05:29:52;;;;;;;52.20;23.80;;;;;;;-4.22;68.49;99904.35;127025;1294;98016;-82
2022/11/20 05:32:55;;;;;;;49.10;23.00;;;;;;;-4.15;68.74;99902.13;126925;1288;99131;-83
2022/11/20 05:35:59;;;;;;;57.90;23.50;;;;;;;-4.08;68.45;99902.69;127149;1279;98010;-82
2022/11/20 05:39:02;;;;;;;60.30;24.40;;;;;;;-4.03;68.52;99899.86;127134;1285;97991;-82
2022/11/20 05:45:27;;;;;;;59.20;26.00;;;;;;;-4.02;68.50;99891.99;127430;1294;98043;-81
2022/11/20 05:48:30;;;;;;;61.70;26.30;;;;;;;-4.04;68.54;99885.29;127415;1284;99146;-83
2022/11/20 05:51:32;;;;;;;58.40;26.00;;;;;;;-4.06;68.63;99889.40;127154;1281;97984;-81
2022/11/20 05:54:36;;;;;;;60.00;26.60;;;;;;;-4.10;68.69;99886.80;127023;1279;99135;-81
2022/11/20 05:57:39;;;;;;;110.40;47.70;;;;;;;-4.16;68.83;99891.40;127082;1286;98116;-81
2022/11/20 06:00:41;;;;;;;105.40;45.80;;;;;;;-4.19;68.68;99896.39;127035;1288;98134;-81
2022/11/20 06:03:47;;;;;;;71.80;32.50;;;;;;;-4.23;68.72;99891.19;127043;1284;98010;-77
2022/11/20 06:06:50;;;;;;;60.10;27.10;;;;;;;-4.24;68.68;99888.98;126849;1282;98047;-83
2022/11/20 06:10:02;;;;;;;56.40;26.00;;;;;;;-4.25;68.67;99887.13;128003;1294;98011;-83
2022/11/20 06:13:05;;;;;;;58.10;26.30;;;;;;;-4.30;68.79;99890.10;127055;1295;99024;-82
2022/11/20 06:16:08;;;;;;;58.10;25.60;;;;;;;-4.32;68.62;99889.68;127405;1276;98094;-82
2022/11/20 06:19:11;;;;;;;63.40;27.30;;;;;;;-4.35;68.74;99892.23;127283;1285;98639;-83
2022/11/20 06:22:14;;;;;;;60.80;26.60;;;;;;;-4.36;68.99;99893.66;127348;1277;99266;-80
2022/11/20 06:25:17;;;;;;;63.00;29.20;;;;;;;-4.40;69.02;99889.83;127129;1281;97999;-82
2022/11/20 06:28:20;;;;;;;81.40;34.40;;;;;;;-4.39;69.13;99888.42;127459;1280;98539;-82
2022/11/20 06:31:25;;;;;;;96.40;38.40;;;;;;;-4.39;68.88;99895.02;127092;1275;98013;-83
2022/11/20 06:34:27;;;;;;;72.60;31.30;;;;;;;-4.39;69.06;99895.34;127292;1285;97986;-82
2022/11/20 06:37:30;;;;;;;63.80;28.20;;;;;;;-4.39;69.07;99893.64;127150;1279;98737;-83
2022/11/20 06:40:33;;;;;;;64.00;28.70;;;;;;;-4.37;69.13;99890.07;126917;1288;98060;-82
2022/11/20 06:43:36;;;;;;;59.50;28.00;;;;;;;-4.33;69.01;99889.73;128933;1279;101599;-83
2022/11/20 06:46:38;;;;;;;56.60;27.60;;;;;;;-4.30;69.10;99891.33;127764;1290;99227;-81
2022/11/20 06:49:49;;;;;;;55.60;26.00;;;;;;;-4.26;68.97;99890.79;127806;1275;97975;-82
2022/11/20 06:52:51;;;;;;;57.60;25.20;;;;;;;-4.17;69.05;99890.39;127730;1294;99176;-81
2022/11/20 06:55:57;;;;;;;52.80;23.90;;;;;;;-4.04;69.17;99894.16;127754;1285;98683;-82
2022/11/20 06:59:05;;;;;;;54.80;24.40;;;;;;;-3.91;69.07;99886.61;127470;1285;97994;-81
2022/11/20 07:02:11;;;;;;;61.80;27.50;;;;;;;-3.80;69.21;99887.69;127667;1288;97982;-82
2022/11/20 07:05:14;;;;;;;63.80;27.90;;;;;;;-3.71;69.18;99883.42;127173;1285;98039;-80
2022/11/20 07:08:16;;;;;;;62.70;27.80;;;;;;;-3.66;68.97;99883.75;127181;1281;99249;-80
2022/11/20 07:11:19;;;;;;;63.70;28.80;;;;;;;-3.62;68.91;99882.33;127002;1286;98083;-82
2022/11/20 07:14:22;;;;;;;63.40;28.40;;;;;;;-3.57;68.89;99881.38;127043;1284;99288;-79
2022/11/20 07:17:24;;;;;;;68.10;29.70;;;;;;;-3.51;69.19;99877.81;127056;1280;98012;-79
2022/11/20 07:20:27;;;;;;;63.90;28.50;;;;;;;-3.44;69.10;99874.20;127241;1287;98985;-80
2022/11/20 07:23:30;;;;;;;65.40;30.40;;;;;;;-3.37;69.18;99869.16;127059;1279;98430;-81
2022/11/20 07:26:33;;;;;;;61.10;29.00;;;;;;;-3.31;69.38;99862.77;127200;1286;98011;-80
2022/11/20 07:29:36;;;;;;;60.70;29.00;;;;;;;-3.25;69.41;99860.20;126988;1279;99132;-79
2022/11/20 07:32:38;;;;;;;66.50;29.80;;;;;;;-3.15;69.27;99864.06;127078;1283;99127;-80
2022/11/20 07:35:41;;;;;;;67.50;31.50;;;;;;;-3.04;69.68;99862.84;127110;1271;97978;-79
2022/11/20 07:38:44;;;;;;;65.80;31.10;;;;;;;-2.92;69.65;99860.64;127491;1294;99036;-79
2022/11/20 07:41:46;;;;;;;62.70;30.50;;;;;;;-2.78;69.58;99856.48;127131;1288;111128;-79
2022/11/20 07:44:49;;;;;;;67.00;30.80;;;;;;;-2.64;69.55;99854.91;127209;1284;99272;-79
2022/11/20 07:47:52;;;;;;;65.20;31.30;;;;;;;-2.47;69.42;99852.09;127292;1288;98107;-79
2022/11/20 07:50:55;;;;;;;61.80;30.50;;;;;;;-2.30;69.67;99848.95;127373;1281;98002;-79
2022/11/20 07:53:58;;;;;;;67.10;32.20;;;;;;;-2.15;69.76;99840.61;127079;1283;99198;-81
2022/11/20 07:57:01;;;;;;;61.80;31.00;;;;;;;-2.01;69.56;99836.55;127499;1281;97974;-78
2022/11/20 08:00:05;;;;;;;64.80;31.50;;;;;;;-1.87;69.57;99840.54;127063;1286;97990;-78
2022/11/20 08:03:14;;;;;;;62.20;31.50;;;;;;;-1.73;69.50;99834.67;127126;1278;111248;-81
2022/11/20 08:06:18;;;;;;;58.40;30.40;;;;;;;-1.59;69.66;99831.98;127134;1284;98084;-82
2022/11/20 08:09:21;;;;;;;60.30;31.00;;;;;;;-1.48;69.33;99825.47;127116;1288;111274;-81
2022/11/20 08:15:50;;;;;;;60.50;30.70;;;;;;;-1.33;69.29;99818.69;127513;1284;111488;-80
2022/11/20 08:18:53;;;;;;;59.70;31.20;;;;;;;-1.27;68.99;99821.48;127313;1288;111228;-82
2022/11/20 08:21:59;;;;;;;56.20;30.20;;;;;;;-1.18;69.39;99819.70;127246;1285;98006;-80
2022/11/20 08:25:01;;;;;;;58.30;31.20;;;;;;;-1.07;69.25;99822.55;127171;1286;111218;-82
2022/11/20 08:28:07;;;;;;;59.50;30.20;;;;;;;-0.98;69.11;99818.91;127077;1286;99140;-81
2022/11/20 08:31:10;;;;;;;60.90;31.40;;;;;;;-0.90;69.12;99816.86;127050;1286;111235;-82
2022/11/20 08:34:12;;;;;;;64.10;32.30;;;;;;;-0.81;69.02;99813.20;127084;1287;99156;-81
2022/11/20 08:37:15;;;;;;;61.40;32.70;;;;;;;-0.71;69.00;99813.66;127364;1275;98403;-80
2022/11/20 08:40:18;;;;;;;60.90;31.70;;;;;;;-0.62;68.82;99807.35;127115;1284;99160;-83
2022/11/20 08:43:20;;;;;;;60.80;31.60;;;;;;;-0.56;68.77;99802.58;127324;1285;98009;-82
2022/11/20 08:46:24;;;;;;;55.40;30.30;;;;;;;-0.50;68.53;99802.77;127207;1286;98743;-83
2022/11/20 08:49:27;;;;;;;58.10;30.60;;;;;;;-0.43;68.58;99800.75;127166;1284;97992;-84
2022/11/20 08:52:29;;;;;;;55.50;29.00;;;;;;;-0.36;68.48;99799.12;127261;1277;99211;-80
2022/11/20 08:55:35;;;;;;;52.30;28.50;;;;;;;-0.30;68.58;99795.92;127080;1286;99625;-80
2022/11/20 08:58:38;;;;;;;50.90;28.30;;;;;;;-0.23;68.25;99792.88;126926;1287;111161;-77
2022/11/20 09:01:41;;;;;;;52.20;28.90;;;;;;;-0.17;68.37;99787.63;126880;1292;111203;-80
2022/11/20 09:04:43;;;;;;;52.40;28.20;;;;;;;-0.10;68.21;99785.10;126890;1301;98019;-77
2022/11/20 09:07:46;;;;;;;52.40;28.50;;;;;;;-0.03;68.32;99782.90;126691;1290;99141;-78
2022/11/20 09:10:52;;;;;;;50.70;28.10;;;;;;;0.02;68.08;99785.42;127002;1292;98430;-74
2022/11/20 09:13:55;;;;;;;50.60;28.20;;;;;;;0.05;68.02;99784.48;126831;1285;111166;-78
2022/11/20 09:16:58;;;;;;;54.30;27.80;;;;;;;0.07;67.92;99785.08;126853;1289;98008;-84
2022/11/20 09:20:01;;;;;;;55.50;30.70;;;;;;;0.06;67.87;99781.42;127020;1296;99303;-80
2022/11/20 09:23:04;;;;;;;53.30;29.60;;;;;;;0.06;67.77;99781.67;126978;1277;98427;-81
2022/11/20 09:26:10;;;;;;;51.80;28.50;;;;;;;0.05;67.71;99785.16;126956;1297;99131;-76
2022/11/20 09:29:13;;;;;;;52.90;28.60;;;;;;;0.02;67.72;99785.08;127082;1296;111252;-80
2022/11/20 09:32:16;;;;;;;54.20;28.60;;;;;;;-0.01;67.81;99781.89;127107;1286;98006;-80
2022/11/20 09:35:18;;;;;;;56.30;29.70;;;;;;;-0.01;67.61;99782.39;126863;1285;99141;-81
2022/11/20 09:38:21;;;;;;;54.00;29.00;;;;;;;-0.03;67.79;99775.55;127091;1291;98475;-80
2022/11/20 09:41:49;;;;;;;55.20;30.20;;;;;;;-0.04;67.67;99774.21;127389;1288;97997;-81
2022/11/20 09:45:14;;;;;;;58.60;29.10;;;;;;;-0.03;67.62;99769.96;127351;1280;111703;-79
2022/11/20 09:48:33;;;;;;;60.70;30.10;;;;;;;-0.03;67.60;99773.11;127228;1286;110829;-78
2022/11/20 09:51:46;;;;;;;57.20;31.00;;;;;;;-0.03;67.64;99773.98;127198;1289;111149;-82
2022/11/20 09:54:50;;;;;;;55.90;29.30;;;;;;;-0.02;67.66;99777.90;127166;1287;111198;-76
2022/11/20 09:57:54;;;;;;;52.60;27.70;;;;;;;-0.00;67.51;99779.06;127226;1288;111214;-72
2022/11/20 10:01:10;;;;;;;51.80;28.30;;;;;;;0.01;67.50;99775.50;127047;1280;111286;-71
2022/11/20 10:04:17;;;;;;;51.50;27.80;;;;;;;0.02;67.31;99777.55;126538;1296;111152;-72
2022/11/20 10:07:25;;;;;;;52.30;27.70;;;;;;;0.04;67.17;99775.28;127088;1285;110630;-71
2022/11/20 10:10:36;;;;;;;50.00;27.50;;;;;;;0.06;67.15;99775.17;126653;1294;111673;-69
2022/11/20 10:13:53;;;;;;;53.20;27.70;;;;;;;0.09;67.21;99775.17;126720;1280;111568;-70
2022/11/20 10:17:11;;;;;;;56.30;29.50;;;;;;;0.12;67.25;99776.83;127038;1292;111737;-71
2022/11/20 10:20:23;;;;;;;51.00;27.70;;;;;;;0.11;67.01;99780.95;126962;1280;111914;-73
2022/11/20 10:23:34;;;;;;;;;;;;;;;0.10;66.97;99780.19;127013;1286;110638;-73
2022/11/20 10:26:53;;;;;;;48.10;25.50;;;;;;;0.10;66.92;99776.67;126901;1292;111027;-71
2022/11/20 10:30:09;;;;;;;49.10;27.20;;;;;;;0.10;66.77;99769.29;126969;1286;111048;-72
2022/11/20 10:33:17;;;;;;;53.60;29.20;;;;;;;0.11;66.87;99764.88;127458;1287;111147;-78
2022/11/20 10:36:25;;;;;;;48.80;27.80;;;;;;;0.14;66.84;99759.63;127078;1286;111288;-71
2022/11/20 10:39:35;;;;;;;56.10;28.70;;;;;;;0.16;66.71;99756.70;127231;1287;111254;-72
2022/11/20 10:42:43;;;;;;;53.60;28.80;;;;;;;0.18;66.82;99753.58;127228;1288;111300;-72
2022/11/20 10:45:55;;;;;;;53.50;29.20;;;;;;;0.21;66.94;99754.45;127162;1286;111668;-72
2022/11/20 10:48:57;;;;;;;51.30;28.20;;;;;;;0.25;66.92;99749.12;127113;1286;111009;-72
2022/11/20 10:52:10;;;;;;;55.50;27.90;;;;;;;0.28;66.67;99747.17;126824;1286;99025;-74
2022/11/20 10:55:25;;;;;;;53.50;27.30;;;;;;;0.30;66.63;99748.21;126970;1281;110749;-72
2022/11/20 10:58:38;;;;;;;56.70;29.40;;;;;;;0.33;66.57;99744.00;126955;1286;111334;-72
2022/11/20 11:01:42;;;;;;;53.00;28.30;;;;;;;0.36;66.62;99738.38;126945;1287;111142;-72
2022/11/20 11:04:47;;;;;;;52.20;28.20;;;;;;;0.39;66.68;99731.70;127316;1287;111130;-73
2022/11/20 11:07:54;;;;;;;48.40;27.80;;;;;;;0.44;66.71;99737.35;126896;1286;112344;-73
2022/11/20 11:11:01;;;;;;;55.40;30.00;;;;;;;0.50;66.65;99731.23;126879;1286;111311;-74
2022/11/20 11:14:08;;;;;;;46.00;25.80;;;;;;;0.53;66.46;99719.09;127120;1278;111206;-72
2022/11/20 11:17:23;;;;;;;43.00;24.00;;;;;;;0.57;66.10;99720.23;127089;1278;111150;-71
2022/11/20 11:20:26;;;;;;;39.80;22.70;;;;;;;0.57;65.59;99717.77;127090;1289;110973;-71
2022/11/20 11:23:34;;;;;;;39.80;22.60;;;;;;;0.58;65.55;99720.71;126697;1296;111084;-71
2022/11/20 11:26:37;;;;;;;40.50;22.70;;;;;;;0.59;65.78;99721.30;126852;1284;111198;-78
2022/11/20 11:29:40;;;;;;;44.80;23.50;;;;;;;0.62;65.84;99724.64;126975;1279;98069;-79
2022/11/20 11:32:42;;;;;;;45.20;24.90;;;;;;;0.63;65.84;99719.30;127704;1287;99137;-81
2022/11/20 11:35:48;;;;;;;48.40;25.20;;;;;;;0.65;65.81;99716.17;127659;1281;98047;-82
2022/11/20 11:38:53;;;;;;;47.00;25.30;;;;;;;0.67;65.73;99713.07;127767;1296;110116;-84
2022/11/20 11:41:56;;;;;;;46.10;25.40;;;;;;;0.70;65.88;99709.04;127248;1296;111191;-83
2022/11/20 11:45:06;;;;;;;42.80;22.90;;;;;;;0.72;65.69;99702.91;127204;1291;110196;-82
2022/11/20 11:48:10;;;;;;;42.80;23.20;;;;;;;0.76;65.47;99701.81;127377;1284;110319;-81
2022/11/20 11:51:20;;;;;;;41.00;23.30;;;;;;;0.79;65.26;99704.55;127376;1280;110804;-79
2022/11/20 11:54:28;;;;;;;42.60;23.10;;;;;;;0.82;65.33;99700.89;127295;1278;111218;-82
2022/11/20 11:57:41;;;;;;;41.80;22.50;;;;;;;0.85;65.31;99698.19;127079;1279;111728;-79
2022/11/20 12:00:54;;;;;;;40.10;22.70;;;;;;;0.89;65.14;99691.49;127829;1285;111060;-78
2022/11/20 12:04:17;;;;;;;38.60;21.30;;;;;;;0.92;65.07;99689.13;126956;1293;111180;-83
2022/11/20 12:07:30;;;;;;;40.10;21.80;;;;;;;0.97;64.70;99680.20;127331;1288;111198;-82
2022/11/20 12:10:41;;;;;;;44.30;25.00;;;;;;;1.01;65.00;99676.30;127107;1279;111202;-81
2022/11/20 12:13:53;;;;;;;45.90;25.50;;;;;;;1.04;64.84;99678.48;127228;1277;109569;-82
2022/11/20 12:16:57;;;;;;;45.90;25.90;;;;;;;1.08;65.10;99678.09;127199;1279;111221;-78
2022/11/20 12:20:00;;;;;;;45.10;24.90;;;;;;;1.12;64.91;99676.36;126882;1295;111204;-83
2022/11/20 12:23:10;;;;;;;43.60;24.50;;;;;;;1.17;64.89;99674.80;127200;1297;97988;-81
2022/11/20 12:26:25;;;;;;;41.60;23.80;;;;;;;1.20;64.67;99670.23;127118;1294;111238;-79
2022/11/20 12:29:40;;;;;;;47.30;25.60;;;;;;;1.22;64.77;99666.79;126920;1280;111232;-84
2022/11/20 12:33:16;;;;;;;49.30;26.30;;;;;;;1.26;64.64;99665.83;127332;1283;111512;-82
2022/11/20 12:36:31;;;;;;;45.70;26.50;;;;;;;1.29;64.54;99659.75;128712;1278;111984;-82
2022/11/20 12:39:42;;;;;;;51.00;26.70;;;;;;;1.37;64.82;99659.05;128577;1294;110878;-80
2022/11/20 12:46:31;;;;;;;47.30;26.40;;;;;;;1.55;64.53;99653.67;127301;1277;111232;-81
2022/11/20 12:49:42;;;;;;;46.90;26.60;;;;;;;1.59;64.28;99649.41;127076;1281;110928;-82
2022/11/20 12:52:53;;;;;;;72.50;39.30;;;;;;;1.61;64.35;99639.82;127154;1279;110021;-79
2022/11/20 12:56:02;;;;;;;121.50;54.80;;;;;;;1.62;64.25;99640.30;127447;1288;111190;-82
2022/11/20 12:59:22;;;;;;;250.20;89.40;;;;;;;1.63;64.19;99635.33;128095;1281;111329;-77
2022/11/20 13:02:31;;;;;;;92.00;42.10;;;;;;;1.64;63.98;99630.16;127841;1278;111217;-78
2022/11/20 13:05:44;;;;;;;51.30;26.90;;;;;;;1.65;64.10;99626.71;126970;1279;111200;-78
2022/11/20 13:08:53;;;;;;;154.50;75.30;;;;;;;1.67;64.01;99617.61;127097;1286;111608;-79
2022/11/20 13:12:05;;;;;;;104.50;50.90;;;;;;;1.68;63.90;99617.19;127074;1286;112341;-79
2022/11/20 13:15:23;;;;;;;93.40;48.50;;;;;;;1.69;64.00;99610.10;127164;1279;110467;-78
2022/11/20 13:18:26;;;;;;;77.40;38.80;;;;;;;1.73;64.12;99608.75;127129;1281;111248;-79
2022/11/20 13:21:38;;;;;;;63.00;31.50;;;;;;;1.76;63.93;99604.17;127330;1288;110935;-83
2022/11/20 13:24:52;;;;;;;49.50;27.70;;;;;;;1.76;64.02;99602.23;126854;1285;111189;-82
2022/11/20 13:27:56;;;;;;;85.30;43.70;;;;;;;1.74;64.01;99602.55;127206;1286;111231;-80
2022/11/20 13:30:59;;;;;;;85.20;41.90;;;;;;;1.71;63.75;99595.95;127291;1288;109874;-82
2022/11/20 13:34:06;;;;;;;130.80;62.80;;;;;;;1.65;63.96;99591.83;127346;1287;111225;-83
2022/11/20 13:37:27;;;;;;;113.30;55.90;;;;;;;1.62;64.14;99590.13;126983;1287;111066;-81
2022/11/20 13:40:30;;;;;;;142.80;71.80;;;;;;;1.60;64.13;99588.87;127495;1288;111321;-82
2022/11/20 13:43:40;;;;;;;104.20;46.70;;;;;;;1.59;64.01;99588.92;127121;1293;99103;-82
2022/11/20 13:46:45;;;;;;;95.40;44.40;;;;;;;1.57;64.02;99582.76;127028;1278;111238;-82
2022/11/20 13:49:49;;;;;;;87.70;42.20;;;;;;;1.55;64.14;99577.64;127235;1287;110200;-79
2022/11/20 13:53:02;;;;;;;60.70;30.70;;;;;;;1.54;63.89;99575.05;127103;1295;111094;-79
2022/11/20 13:56:15;;;;;;;69.20;35.10;;;;;;;1.51;64.14;99571.09;127050;1288;111193;-80
2022/11/20 13:59:35;;;;;;;67.00;33.50;;;;;;;1.49;64.22;99570.86;127059;1278;111276;-80
2022/11/20 14:02:39;;;;;;;57.80;31.40;;;;;;;1.49;63.97;99569.29;127072;1279;111263;-80
2022/11/20 14:05:50;;;;;;;58.50;31.20;;;;;;;1.48;64.04;99573.93;127079;1288;111256;-79
2022/11/20 14:08:53;;;;;;;62.00;34.20;;;;;;;1.46;63.87;99572.88;127091;1288;110098;-77
2022/11/20 14:11:56;;;;;;;57.60;31.50;;;;;;;1.43;63.95;99571.33;127052;1302;98639;-76
2022/11/20 14:15:00;;;;;;;52.90;28.00;;;;;;;1.40;64.02;99569.27;126951;1286;111211;-77